createdAt,value
2018-08-24T00:01:05.607Z,18.70
2018-08-24T00:06:00.333Z,18.60
2018-08-24T00:10:55.286Z,18.70
2018-08-24T00:15:50.044Z,18.70
2018-08-24T00:20:44.626Z,18.60
2018-08-24T00:25:39.329Z,18.50
2018-08-24T00:30:34.019Z,18.50
2018-08-24T00:35:28.872Z,18.40
2018-08-24T00:40:23.951Z,18.50
2018-08-24T00:45:18.697Z,18.60
2018-08-24T00:50:13.455Z,18.60
2018-08-24T00:55:08.199Z,18.50
2018-08-24T01:00:03.018Z,18.40
2018-08-24T01:04:57.949Z,18.20
2018-08-24T01:09:52.672Z,17.90
2018-08-24T01:14:48.667Z,17.80
2018-08-24T01:19:45.767Z,17.60
2018-08-24T01:24:40.520Z,17.50
2018-08-24T01:42:29.765Z,17.40
2018-08-24T01:47:33.639Z,17.30
2018-08-24T01:52:28.354Z,17.30
2018-08-24T01:57:23.062Z,17.20
2018-08-24T02:02:17.791Z,17.10
2018-08-24T02:07:12.595Z,17.10
2018-08-24T02:12:11.604Z,17.20
2018-08-24T02:17:10.534Z,17.30
2018-08-24T02:22:18.886Z,17.30
2018-08-24T02:27:13.709Z,17.30
2018-08-24T02:32:09.417Z,17.40
2018-08-24T02:37:04.239Z,17.50
2018-08-24T02:41:58.923Z,17.40
2018-08-24T02:46:53.633Z,17.50
2018-08-24T02:51:48.359Z,17.40
2018-08-24T02:56:43.148Z,17.50
2018-08-24T03:01:37.901Z,17.50
2018-08-24T03:06:32.779Z,17.50
2018-08-24T03:11:27.615Z,17.50
2018-08-24T03:16:22.604Z,17.50
2018-08-24T03:21:17.316Z,17.40
2018-08-24T03:26:11.999Z,17.40
2018-08-24T03:31:06.762Z,17.40
2018-08-24T03:36:01.538Z,17.40
2018-08-24T03:40:56.282Z,17.30
2018-08-24T03:45:51.024Z,17.30
2018-08-24T03:50:45.687Z,17.20
2018-08-24T03:55:40.467Z,17.20
2018-08-24T04:00:35.155Z,17.20
2018-08-24T04:05:29.853Z,17.20
2018-08-24T04:10:25.852Z,17.30
2018-08-24T04:15:20.537Z,17.30
2018-08-24T04:20:15.510Z,17.30
2018-08-24T04:25:10.510Z,17.30
2018-08-24T04:30:05.501Z,17.40
2018-08-24T04:35:00.285Z,17.40
2018-08-24T04:39:54.927Z,17.40
2018-08-24T04:44:49.567Z,17.40
2018-08-24T04:49:44.747Z,17.40
2018-08-24T04:54:39.492Z,17.40
2018-08-24T04:59:34.168Z,17.50
2018-08-24T05:04:29.779Z,17.50
2018-08-24T05:09:24.471Z,17.50
2018-08-24T05:14:19.456Z,17.50
2018-08-24T05:19:14.265Z,17.60
2018-08-24T05:24:08.912Z,17.60
2018-08-24T05:29:03.687Z,17.50
2018-08-24T05:33:58.553Z,17.50
2018-08-24T05:38:53.611Z,17.40
2018-08-24T05:43:48.438Z,17.50
2018-08-24T05:48:43.190Z,17.40
2018-08-24T05:53:37.849Z,17.50
2018-08-24T05:58:32.533Z,17.50
2018-08-24T06:03:27.281Z,17.40
2018-08-24T06:08:21.940Z,17.40
2018-08-24T06:13:19.007Z,17.40
2018-08-24T06:18:13.855Z,17.40
2018-08-24T06:23:08.566Z,17.50
2018-08-24T06:28:03.351Z,17.50
2018-08-24T06:32:58.051Z,17.60
2018-08-24T06:37:52.687Z,17.60
2018-08-24T06:42:47.387Z,17.80
2018-08-24T06:47:42.128Z,17.90
2018-08-24T06:52:36.723Z,18.00
2018-08-24T06:57:31.393Z,18.10
2018-08-24T07:02:29.030Z,18.30
2018-08-24T07:07:23.722Z,18.40
2018-08-24T07:12:18.496Z,18.40
2018-08-24T07:17:13.277Z,18.30
2018-08-24T07:22:08.199Z,18.30
2018-08-24T07:27:02.850Z,18.40
2018-08-24T07:31:57.534Z,18.60
2018-08-24T07:36:52.405Z,18.60
2018-08-24T07:41:47.172Z,18.80
2018-08-24T07:46:42.086Z,19.20
2018-08-24T07:51:37.524Z,19.40
2018-08-24T07:56:32.300Z,19.60
2018-08-24T08:01:29.160Z,19.70
2018-08-24T08:06:23.918Z,19.50
2018-08-24T08:11:18.804Z,19.40
2018-08-24T08:16:13.444Z,19.20
2018-08-24T08:21:11.379Z,19.10
2018-08-24T08:26:06.109Z,18.90
2018-08-24T08:31:01.063Z,18.90
2018-08-24T08:35:55.895Z,19.00
2018-08-24T08:40:50.833Z,19.20
2018-08-24T08:45:45.681Z,19.60
2018-08-24T08:50:40.589Z,20.00
2018-08-24T08:55:35.580Z,20.20
2018-08-24T09:00:30.691Z,20.30
2018-08-24T09:05:26.180Z,20.20
2018-08-24T09:10:22.079Z,20.40
2018-08-24T09:20:31.055Z,20.70
2018-08-24T09:25:31.098Z,20.60
2018-08-24T09:30:30.124Z,20.60
2018-08-24T09:35:26.674Z,21.30
2018-08-24T09:40:25.752Z,21.60
2018-08-24T09:45:20.579Z,22.00
2018-08-24T09:50:20.674Z,22.50
2018-08-24T09:55:16.416Z,23.00
2018-08-24T10:00:11.031Z,23.30
2018-08-24T10:05:11.248Z,23.10
2018-08-24T10:10:06.457Z,22.80
2018-08-24T10:15:01.185Z,22.90
2018-08-24T10:19:56.021Z,23.30
2018-08-24T10:24:50.851Z,23.30
2018-08-24T10:29:45.701Z,23.00
2018-08-24T10:34:40.404Z,23.50
2018-08-24T10:39:35.616Z,23.60
2018-08-24T10:44:30.732Z,23.50
2018-08-24T10:49:25.509Z,23.70
2018-08-24T10:54:20.431Z,23.90
2018-08-24T10:59:15.717Z,23.90
2018-08-24T11:04:10.771Z,24.20
2018-08-24T11:11:39.226Z,24.60
2018-08-24T11:16:34.004Z,24.70
2018-08-24T11:21:29.799Z,25.20
2018-08-24T11:26:24.588Z,25.00
2018-08-24T11:31:21.606Z,25.00
2018-08-24T11:36:16.737Z,25.30
2018-08-24T11:41:11.603Z,25.30
2018-08-24T11:46:07.504Z,25.30
2018-08-24T11:51:02.203Z,25.20
2018-08-24T11:55:56.872Z,25.40
2018-08-24T12:00:51.841Z,25.30
2018-08-24T12:05:47.353Z,25.50
2018-08-24T12:10:42.254Z,24.60
2018-08-24T12:15:37.198Z,23.70
2018-08-24T12:20:32.298Z,23.30
2018-08-24T12:25:27.477Z,23.40
2018-08-24T12:30:22.259Z,23.80
2018-08-24T12:35:17.103Z,24.00
2018-08-24T12:40:11.838Z,23.60
2018-08-24T12:45:06.620Z,23.30
2018-08-24T12:50:01.328Z,23.20
2018-08-24T12:54:56.044Z,23.50
2018-08-24T12:59:50.746Z,23.70
2018-08-24T13:04:45.429Z,23.90
2018-08-24T13:09:40.080Z,23.90
2018-08-24T13:14:34.833Z,24.00
2018-08-24T13:19:29.533Z,24.00
2018-08-24T13:24:24.256Z,24.00
2018-08-24T13:29:18.975Z,24.00
2018-08-24T13:34:13.607Z,24.00
2018-08-24T13:39:10.142Z,23.80
2018-08-24T13:44:06.082Z,23.90
2018-08-24T13:49:00.809Z,23.80
2018-08-24T13:53:55.825Z,23.70
2018-08-24T13:58:50.612Z,23.80
2018-08-24T14:03:45.428Z,23.80
2018-08-24T14:08:41.160Z,24.10
2018-08-24T14:13:35.877Z,24.20
2018-08-24T14:18:41.891Z,23.90
2018-08-24T14:23:36.540Z,23.70
2018-08-24T14:28:31.242Z,23.50
2018-08-24T14:33:25.996Z,23.70
2018-08-24T14:38:20.803Z,24.30
2018-08-24T14:43:15.537Z,24.60
2018-08-24T14:48:10.157Z,24.90
2018-08-24T14:53:05.582Z,24.70
2018-08-24T14:58:00.282Z,24.40
2018-08-24T15:02:55.123Z,23.80
2018-08-24T15:07:49.902Z,23.50
2018-08-24T15:12:44.719Z,23.20
2018-08-24T15:17:39.506Z,23.10
2018-08-24T15:22:34.679Z,22.80
2018-08-24T15:27:29.753Z,22.70
2018-08-24T15:32:24.476Z,22.50
2018-08-24T15:37:19.233Z,22.40
2018-08-24T15:42:13.938Z,22.20
2018-08-24T15:47:08.705Z,22.20
2018-08-24T15:52:03.624Z,22.20
2018-08-24T15:56:58.342Z,22.10
2018-08-24T16:01:53.031Z,22.00
2018-08-24T16:06:47.740Z,21.90
2018-08-24T16:11:42.353Z,21.50
2018-08-24T16:16:37.164Z,21.30
2018-08-24T16:21:31.877Z,21.10
2018-08-24T16:26:26.628Z,20.70
2018-08-24T16:31:21.301Z,20.40
2018-08-24T16:36:16.540Z,20.20
2018-08-24T16:41:11.364Z,19.90
2018-08-24T16:46:06.331Z,19.50
2018-08-24T16:51:01.156Z,19.50
2018-08-24T16:55:55.980Z,19.40
2018-08-24T17:00:50.993Z,19.40
2018-08-24T17:05:45.830Z,19.10
2018-08-24T17:10:40.653Z,19.00
2018-08-24T17:15:35.871Z,18.90
2018-08-24T17:20:30.522Z,19.00
2018-08-24T17:25:26.247Z,18.90
2018-08-24T17:30:21.113Z,18.80
2018-08-24T17:35:15.875Z,18.70
2018-08-24T17:40:10.824Z,18.60
2018-08-24T17:45:06.273Z,18.50
2018-08-24T17:50:01.061Z,18.50
2018-08-24T17:54:56.579Z,18.50
2018-08-24T17:59:54.976Z,18.50
2018-08-24T18:04:50.887Z,18.50
2018-08-24T18:09:45.697Z,18.40
2018-08-24T18:14:40.529Z,18.60
2018-08-24T18:19:35.252Z,18.50
2018-08-24T18:24:30.062Z,18.60
2018-08-24T18:29:24.896Z,18.50
2018-08-24T18:39:25.686Z,18.70
2018-08-24T18:44:20.501Z,18.50
2018-08-24T18:49:15.171Z,18.40
2018-08-24T18:54:09.917Z,18.40
2018-08-24T18:59:04.731Z,18.20
2018-08-24T19:03:59.467Z,18.20
2018-08-24T19:08:54.473Z,18.20
2018-08-24T19:13:49.465Z,18.20
2018-08-24T19:18:49.135Z,18.20
2018-08-24T19:23:43.885Z,18.20
2018-08-24T19:28:43.611Z,18.20
2018-08-24T19:33:38.379Z,18.10
2018-08-24T19:38:33.117Z,18.20
2018-08-24T19:43:27.908Z,18.20
2018-08-24T19:48:28.069Z,18.10
2018-08-24T19:53:22.800Z,18.10
2018-08-24T19:58:22.642Z,18.20
2018-08-24T20:03:17.462Z,18.20
2018-08-24T20:08:17.240Z,18.10
2018-08-24T20:13:12.088Z,18.10
2018-08-24T20:18:07.051Z,18.10
2018-08-24T20:23:01.912Z,18.00
2018-08-24T20:27:56.792Z,18.10
2018-08-24T20:32:51.573Z,18.00
2018-08-24T20:37:46.324Z,18.00
2018-08-24T20:42:41.132Z,18.00
2018-08-24T20:47:35.907Z,18.10
2018-08-24T20:52:30.634Z,18.10
2018-08-24T20:57:25.426Z,18.00
2018-08-24T21:02:20.466Z,18.00
2018-08-24T21:07:15.245Z,17.80
2018-08-24T21:12:10.040Z,17.80
2018-08-24T21:17:04.930Z,17.80
2018-08-24T21:21:59.678Z,17.80
2018-08-24T21:26:54.600Z,17.70
2018-08-24T21:31:49.681Z,17.70
2018-08-24T21:36:44.513Z,17.70
2018-08-24T21:41:39.768Z,17.70
2018-08-24T21:46:34.637Z,17.60
2018-08-24T21:51:29.425Z,17.50
2018-08-24T21:56:24.371Z,17.40
2018-08-24T22:01:19.180Z,17.60
2018-08-24T22:06:13.945Z,17.40
2018-08-24T22:11:08.760Z,17.40
2018-08-24T22:16:03.925Z,17.40
2018-08-24T22:20:58.780Z,17.40
2018-08-24T22:25:53.554Z,17.40
2018-08-24T22:30:48.383Z,17.40
2018-08-24T22:35:43.362Z,17.40
2018-08-24T22:40:38.219Z,17.40
2018-08-24T22:45:32.906Z,17.20
2018-08-24T22:50:27.750Z,17.20
2018-08-24T22:55:22.556Z,17.30
2018-08-24T23:00:17.370Z,17.30
2018-08-24T23:05:12.105Z,17.30
2018-08-24T23:10:07.099Z,17.40
2018-08-24T23:15:01.880Z,17.40
2018-08-24T23:19:56.769Z,17.30
2018-08-24T23:24:51.595Z,17.30
2018-08-24T23:29:46.400Z,17.20
2018-08-24T23:34:41.107Z,17.20
2018-08-24T23:39:35.783Z,17.20
2018-08-24T23:44:30.588Z,17.10
2018-08-24T23:49:25.459Z,17.00
2018-08-24T23:54:20.159Z,17.10
2018-08-24T23:59:15.120Z,16.90
